• Join FlightAware (Why Join?)
  • Login
  • US Flag 
05:43AM EDT


 

Airport Tracker/Info


-or-


 

Live Flight TrackerFlight Track Log ✈ N9706B ✈ 15-Jun-2013 ✈ KTZR - KPMH

Flight Track Log - Related Links

Times and Time Zones

All times are in EDT time to prevent confusion due to time zone crossing. See the N9706B flight status page for this flight to view local times or setup timezone preferences in your user account.

Time Position Orientation Groundspeed Altitude Reporting Facility
EDT Latitude Longitude Course Direction KTS MPH feet Rate Location/Type
10:33AM 39.7439 -83.1114 172° South 117 135 3,600  Level Indianapolis Center
10:34AM 39.6964 -83.1031 172° South 124 143 3,600  Level Indianapolis Center
10:35AM 39.6600 -83.0986 175° South 120 138 3,600 -60 Level Indianapolis Center
10:36AM 39.6247 -83.1014 183° South 123 142 3,500 -60 Descending Indianapolis Center
10:37AM 39.5908 -83.0975 175° South 122 140 3,500  Level Indianapolis Center
10:38AM 39.5564 -83.0878 168° South 124 143 3,500  Level Indianapolis Center
10:39AM 39.5233 -83.0747 163° South 124 143 3,600  Climbing Indianapolis Center
10:40AM 39.4903 -83.0653 168° South 121 139 3,600  Level Indianapolis Center
10:41AM 39.4564 -83.0572 170° South 122 140 3,600  Level Indianapolis Center
10:42AM 39.4183 -83.0497 171° South 122 140 3,600 -60 Level Indianapolis Center
10:43AM 39.3864 -83.0472 177° South 124 143 3,500 -60 Descending Indianapolis Center
10:45AM 39.3511 -83.0461 179° South 125 144 3,500  Level Indianapolis Center
10:46AM 39.3164 -83.0411 174° South 125 144 3,500  Level Indianapolis Center
10:47AM 39.2775 -83.0300 168° South 123 142 3,500 -60 Level Indianapolis Center
10:48AM 39.2428 -83.0178 165° South 125 144 3,400  Descending Indianapolis Center
10:49AM 39.2097 -83.0044 163° South 124 143 3,500  Climbing Indianapolis Center
10:50AM 39.1758 -82.9978 171° South 123 142 3,500 -60 Level Indianapolis Center
10:51AM 39.1422 -82.9919 172° South 126 145 3,400 -120 Descending Indianapolis Center
10:52AM 39.1069 -82.9856 172° South 128 147 3,300  Descending Indianapolis Center
10:53AM 39.0681 -82.9775 171° South 120 138 3,400 60 Climbing Indianapolis Center
10:54AM 39.0350 -82.9675 167° South 120 138 3,500  Climbing Indianapolis Center
10:55AM 39.0025 -82.9567 165° South 120 138 3,500 -120 Level Indianapolis Center
10:56AM 38.9711 -82.9336 150° Southeast 127 146 3,300 -240 Descending Indianapolis Center